Time;durP1;ratioP1;P1;durP2;ratioP2;P2;SDS_P1;SDS_P2;PMS_P1;PMS_P2;Temp;Humidity;BMP_temperature;BMP_pressure;BME280_temperature;BME280_humidity;BME280_pressure;Samples;Min_cycle;Max_cycle;Signal;HPM_P1;HPM_P2
2021/05/30 00:00:05;;;;;;;26.75;9.90;;;;;;;8.03;77.49;102448.56;5055549;28;20024;-69
2021/05/30 00:02:30;;;;;;;23.50;10.68;;;;;;;7.98;77.68;102448.16;5054271;28;20029;-68
2021/05/30 00:04:55;;;;;;;20.85;9.95;;;;;;;7.94;77.66;102452.84;5053455;28;20094;-68
2021/05/30 00:07:22;;;;;;;22.92;10.27;;;;;;;7.92;77.50;102447.59;5055430;28;20017;-68
2021/05/30 00:09:50;;;;;;;20.25;10.02;;;;;;;7.90;77.55;102447.44;5054201;28;20441;-69
2021/05/30 00:12:16;;;;;;;27.15;12.57;;;;;;;7.77;77.71;102442.00;5055349;28;20021;-68
2021/05/30 00:14:42;;;;;;;30.10;12.00;;;;;;;7.79;78.31;102453.28;5053946;28;20043;-69
2021/05/30 00:17:08;;;;;;;28.25;11.65;;;;;;;7.73;77.92;102452.75;5055207;28;20055;-69
2021/05/30 00:19:33;;;;;;;30.35;11.15;;;;;;;7.72;77.84;102445.81;5053917;28;20036;-68
2021/05/30 00:21:59;;;;;;;25.10;11.68;;;;;;;7.70;77.71;102442.22;5044207;28;20037;-68
2021/05/30 00:24:24;;;;;;;25.15;12.23;;;;;;;7.63;77.84;102445.00;5034072;28;20026;-69
2021/05/30 00:26:50;;;;;;;30.73;15.00;;;;;;;7.62;77.95;102445.75;5034224;28;20029;-69
2021/05/30 00:29:15;;;;;;;35.10;15.38;;;;;;;7.56;78.21;102444.44;5035053;28;20084;-68
2021/05/30 00:31:40;;;;;;;34.78;15.38;;;;;;;7.55;77.75;102447.78;5033941;28;20285;-69
2021/05/30 00:34:06;;;;;;;35.50;14.93;;;;;;;7.51;77.05;102445.69;5043470;28;20028;-69
2021/05/30 00:36:32;;;;;;;34.30;14.35;;;;;;;7.51;77.29;102442.25;5053675;28;20052;-69
2021/05/30 00:38:57;;;;;;;28.60;13.93;;;;;;;7.50;77.09;102443.00;5036810;28;20112;-69
2021/05/30 00:41:23;;;;;;;35.63;15.00;;;;;;;7.47;77.18;102443.59;5053529;28;20059;-69
2021/05/30 00:43:53;;;;;;;48.72;18.70;;;;;;;7.42;77.40;102439.72;5045504;28;20375;-68
2021/05/30 00:46:19;;;;;;;72.97;23.55;;;;;;;7.43;77.74;102441.53;5033643;28;20139;-68
2021/05/30 00:48:45;;;;;;;58.22;21.02;;;;;;;7.41;77.88;102445.63;5033503;28;20494;-68
2021/05/30 00:51:12;;;;;;;41.03;16.30;;;;;;;7.43;78.36;102446.66;5034151;28;20136;-68
2021/05/30 00:53:37;;;;;;;37.78;15.45;;;;;;;7.45;77.94;102445.13;5033444;28;20036;-68
2021/05/30 00:56:05;;;;;;;34.95;14.30;;;;;;;7.42;78.23;102439.72;5034607;28;20025;-68
2021/05/30 00:58:30;;;;;;;38.22;13.45;;;;;;;7.42;78.31;102434.59;5032662;28;20179;-68
2021/05/30 01:00:56;;;;;;;25.58;12.48;;;;;;;7.44;78.72;102433.06;5034659;28;20366;-68
2021/05/30 01:03:21;;;;;;;35.20;12.07;;;;;;;7.38;78.54;102437.66;5034568;28;20033;-69
2021/05/30 01:05:47;;;;;;;23.08;11.30;;;;;;;7.36;78.53;102439.19;5033269;28;20017;-68
2021/05/30 01:08:15;;;;;;;21.98;10.82;;;;;;;7.39;78.67;102429.19;5033011;28;20029;-69
2021/05/30 01:10:45;;;;;;;24.98;10.43;;;;;;;7.38;78.25;102437.66;5034355;28;20049;-68
2021/05/30 01:13:12;;;;;;;23.77;11.73;;;;;;;7.34;78.67;102440.69;5033056;28;20049;-69
2021/05/30 01:15:38;;;;;;;20.05;9.88;;;;;;;7.36;78.81;102439.19;5016597;28;20033;-69
2021/05/30 01:18:04;;;;;;;21.58;10.38;;;;;;;7.39;78.92;102439.44;5040737;28;20025;-69
2021/05/30 01:20:30;;;;;;;24.15;11.30;;;;;;;7.42;79.31;102434.59;5052766;28;20035;-68
2021/05/30 01:22:56;;;;;;;21.35;10.98;;;;;;;7.44;78.37;102428.88;5054193;28;20425;-68
2021/05/30 01:25:23;;;;;;;26.48;11.25;;;;;;;7.46;77.66;102441.81;5052661;28;20033;-68
2021/05/30 01:27:51;;;;;;;24.75;11.57;;;;;;;7.33;78.49;102434.66;5038977;28;20033;-69
2021/05/30 01:30:18;;;;;;;24.42;11.52;;;;;;;7.33;78.62;102433.78;5032924;28;20067;-69
2021/05/30 01:32:46;;;;;;;24.90;11.52;;;;;;;7.30;78.80;102430.16;5033957;28;20020;-68
2021/05/30 01:35:13;;;;;;;26.83;11.02;;;;;;;7.30;79.02;102440.41;5042172;28;20087;-68
2021/05/30 01:37:39;;;;;;;21.55;11.63;;;;;;;7.30;78.56;102448.09;5042969;28;20466;-69
2021/05/30 01:40:06;;;;;;;27.98;11.85;;;;;;;7.25;78.57;102451.91;5039054;28;20025;-68
2021/05/30 01:42:31;;;;;;;22.48;12.65;;;;;;;7.23;79.06;102447.38;5041857;28;20486;-69
2021/05/30 01:44:57;;;;;;;19.45;10.75;;;;;;;7.17;78.81;102452.88;5043969;28;20029;-68
2021/05/30 01:47:22;;;;;;;25.52;10.90;;;;;;;7.13;78.68;102450.78;5041907;28;20021;-68
2021/05/30 01:49:48;;;;;;;28.58;11.38;;;;;;;7.07;78.96;102450.22;5042425;28;20049;-68
2021/05/30 01:52:13;;;;;;;24.75;10.38;;;;;;;7.05;78.28;102456.88;5034795;28;20025;-68
2021/05/30 01:54:45;;;;;;;28.08;10.45;;;;;;;7.03;78.93;102454.16;5041299;28;20398;-69
2021/05/30 01:57:10;;;;;;;23.70;11.80;;;;;;;7.01;78.66;102456.59;5053406;28;20071;-68
2021/05/30 01:59:37;;;;;;;23.90;11.30;;;;;;;6.96;78.76;102459.47;5052042;28;20033;-69
2021/05/30 02:02:04;;;;;;;27.85;11.02;;;;;;;6.89;78.71;102455.41;5051991;28;20032;-69
2021/05/30 02:04:40;;;;;;;24.80;12.25;;;;;;;6.89;78.58;102454.53;5052002;28;20071;-69
2021/05/30 02:07:07;;;;;;;27.02;10.40;;;;;;;6.84;78.60;102451.53;5052008;28;20386;-69
2021/05/30 02:09:36;;;;;;;24.75;11.27;;;;;;;6.76;78.52;102448.25;5048429;28;20467;-69
2021/05/30 02:12:01;;;;;;;16.88;9.70;;;;;;;6.78;78.02;102440.72;5033154;28;20133;-68
2021/05/30 02:14:27;;;;;;;20.75;10.07;;;;;;;6.76;78.18;102447.34;5031765;28;20068;-69
2021/05/30 02:16:53;;;;;;;20.77;11.23;;;;;;;6.71;78.60;102447.81;5031799;28;20075;-69
2021/05/30 02:19:18;;;;;;;19.88;10.88;;;;;;;6.66;78.56;102451.59;5015240;28;20025;-68
2021/05/30 02:21:50;;;;;;;27.73;11.93;;;;;;;6.70;78.82;102447.69;5015413;28;20039;-69
2021/05/30 02:24:17;;;;;;;23.05;12.13;;;;;;;6.64;78.68;102442.88;5033530;28;20475;-68
2021/05/30 02:26:43;;;;;;;22.80;9.68;;;;;;;6.63;77.88;102446.19;5051397;28;20028;-68
2021/05/30 02:29:10;;;;;;;22.85;9.68;;;;;;;6.62;78.27;102454.63;5052754;28;20029;-69
2021/05/30 02:31:35;;;;;;;31.40;11.25;;;;;;;6.63;78.42;102458.13;5051626;28;20028;-69
2021/05/30 02:34:02;;;;;;;23.55;11.35;;;;;;;6.56;78.85;102454.97;5051652;28;20377;-70
2021/05/30 02:36:28;;;;;;;22.50;10.30;;;;;;;6.70;78.60;102448.56;5051442;28;20020;-69
2021/05/30 02:38:54;;;;;;;23.17;11.20;;;;;;;6.71;78.78;102450.38;5051404;28;20544;-69
2021/05/30 02:41:20;;;;;;;24.63;11.00;;;;;;;6.75;79.28;102442.97;5039457;28;20060;-70
2021/05/30 02:43:48;;;;;;;27.25;11.20;;;;;;;6.72;78.63;102451.28;5031697;28;20021;-70
2021/05/30 02:46:14;;;;;;;21.40;11.32;;;;;;;6.72;78.65;102452.19;5032719;28;20021;-71
2021/05/30 02:48:40;;;;;;;23.98;11.07;;;;;;;6.67;78.59;102453.41;5032651;28;20085;-68
2021/05/30 02:51:06;;;;;;;20.88;10.50;;;;;;;6.61;78.09;102457.94;5032686;28;20042;-69
2021/05/30 02:53:33;;;;;;;23.70;11.27;;;;;;;6.62;78.58;102449.50;5032729;28;20029;-70
2021/05/30 02:55:59;;;;;;;19.60;9.38;;;;;;;6.58;78.13;102442.31;5032121;28;20029;-68
2021/05/30 02:58:26;;;;;;;19.13;10.23;;;;;;;6.56;77.95;102439.63;5034652;28;20039;-69
2021/05/30 03:00:53;;;;;;;23.13;11.38;;;;;;;6.57;78.19;102440.50;5051449;28;20029;-68
2021/05/30 03:03:18;;;;;;;23.70;11.55;;;;;;;6.56;79.00;102438.69;5051283;28;20467;-69
2021/05/30 03:05:44;;;;;;;22.58;11.15;;;;;;;6.52;78.94;102431.47;5039343;28;20105;-69
2021/05/30 03:08:09;;;;;;;24.70;11.02;;;;;;;6.57;78.71;102440.50;5031487;28;20083;-70
2021/05/30 03:10:35;;;;;;;23.08;11.57;;;;;;;6.57;79.28;102435.38;5031246;28;20032;-70
2021/05/30 03:13:00;;;;;;;22.55;11.98;;;;;;;6.55;79.52;102434.34;5041133;28;20029;-69
2021/05/30 03:15:26;;;;;;;18.67;10.93;;;;;;;6.62;79.45;102431.59;5052306;28;20479;-69
2021/05/30 03:17:52;;;;;;;27.38;12.18;;;;;;;6.60;80.44;102432.22;5052189;28;20478;-68
2021/05/30 03:20:17;;;;;;;28.27;13.07;;;;;;;6.65;80.29;102434.44;5052622;28;20070;-69
2021/05/30 03:22:43;;;;;;;32.78;14.07;;;;;;;6.68;80.12;102434.72;5056227;28;20028;-69
2021/05/30 03:25:10;;;;;;;29.23;12.52;;;;;;;6.72;80.24;102435.94;5043433;28;20041;-69
2021/05/30 03:27:35;;;;;;;26.02;12.85;;;;;;;6.76;80.17;102437.09;5034766;28;20479;-68
2021/05/30 03:30:01;;;;;;;31.48;12.55;;;;;;;6.77;80.08;102433.78;5034522;28;20036;-68
2021/05/30 03:32:27;;;;;;;25.40;12.82;;;;;;;6.80;80.06;102434.06;5036168;28;20427;-68
2021/05/30 03:34:52;;;;;;;29.70;14.20;;;;;;;6.85;80.10;102433.75;5034910;28;20029;-68
2021/05/30 03:37:18;;;;;;;30.23;12.05;;;;;;;6.90;79.83;102436.75;5034602;28;20108;-67
2021/05/30 03:39:45;;;;;;;31.80;13.60;;;;;;;6.92;79.59;102440.38;5034672;28;20030;-69
2021/05/30 03:42:21;;;;;;;32.28;13.23;;;;;;;6.94;79.81;102449.09;5055564;28;20033;-68
2021/05/30 03:44:47;;;;;;;29.45;14.27;;;;;;;7.05;78.95;102447.50;5038126;28;20493;-69
2021/05/30 03:47:13;;;;;;;23.83;11.80;;;;;;;7.08;78.46;102446.91;5055916;28;20029;-69
2021/05/30 03:49:40;;;;;;;29.42;13.10;;;;;;;7.06;79.12;102435.59;5055986;28;20044;-68
2021/05/30 03:52:06;;;;;;;27.25;13.57;;;;;;;7.14;78.66;102443.22;5054597;28;20020;-68
2021/05/30 03:54:32;;;;;;;26.35;13.07;;;;;;;7.17;78.75;102442.63;5054411;28;20462;-68
2021/05/30 03:56:57;;;;;;;29.15;13.48;;;;;;;7.17;79.05;102452.88;5043776;28;20055;-68
2021/05/30 03:59:23;;;;;;;33.75;14.20;;;;;;;7.18;79.04;102451.19;5034322;28;20033;-69
2021/05/30 04:01:49;;;;;;;33.42;14.43;;;;;;;7.24;79.09;102447.53;5035580;28;20518;-69
2021/05/30 04:04:14;;;;;;;26.90;13.63;;;;;;;7.18;79.27;102449.56;5035167;28;20027;-69
2021/05/30 04:06:39;;;;;;;28.13;13.63;;;;;;;7.28;79.21;102454.75;5042051;28;20108;-69
2021/05/30 04:09:05;;;;;;;32.33;14.00;;;;;;;7.34;79.05;102450.94;5037484;28;20033;-69
2021/05/30 04:11:31;;;;;;;28.25;13.32;;;;;;;7.36;78.88;102449.44;5054205;28;20017;-69
2021/05/30 04:13:56;;;;;;;32.88;14.07;;;;;;;7.46;78.59;102457.19;5053919;28;20048;-69
2021/05/30 04:16:22;;;;;;;27.27;13.57;;;;;;;7.64;78.38;102451.91;5055210;28;20032;-69
2021/05/30 04:18:48;;;;;;;30.02;13.95;;;;;;;7.80;77.65;102449.97;5055270;28;20311;-69
2021/05/30 04:21:13;;;;;;;28.08;14.23;;;;;;;8.00;77.21;102445.75;5054054;28;20163;-69
2021/05/30 04:23:39;;;;;;;30.27;13.52;;;;;;;8.06;76.85;102446.28;5038395;28;20040;-70
2021/05/30 04:26:04;;;;;;;29.73;13.70;;;;;;;8.22;76.59;102451.06;5035306;28;20092;-69
2021/05/30 04:28:30;;;;;;;31.15;15.50;;;;;;;8.14;77.17;102455.56;5035141;28;20029;-69
2021/05/30 04:30:56;;;;;;;32.83;13.10;;;;;;;8.16;78.17;102445.41;5034004;28;20025;-70
2021/05/30 04:33:22;;;;;;;33.70;13.95;;;;;;;8.32;78.49;102457.94;5035414;28;20025;-68
2021/05/30 04:35:48;;;;;;;35.08;14.60;;;;;;;8.33;78.20;102459.72;5044074;28;20017;-69
2021/05/30 04:38:14;;;;;;;41.45;15.73;;;;;;;8.36;78.41;102457.44;5026862;28;20018;-69
2021/05/30 04:40:39;;;;;;;40.50;14.93;;;;;;;8.39;78.42;102444.84;5043560;28;20039;-68
2021/05/30 04:43:05;;;;;;;33.83;14.43;;;;;;;8.54;78.20;102449.56;5044255;28;20424;-68
2021/05/30 04:45:30;;;;;;;36.58;14.38;;;;;;;8.61;77.47;102446.75;5036389;28;20021;-68
2021/05/30 04:47:55;;;;;;;33.10;13.82;;;;;;;8.62;77.62;102448.53;5033712;28;20026;-68
2021/05/30 04:50:21;;;;;;;26.02;13.13;;;;;;;8.64;77.47;102447.00;5034762;28;20112;-69
2021/05/30 04:52:46;;;;;;;37.75;12.63;;;;;;;8.45;79.43;102440.25;5034707;28;20056;-69
2021/05/30 04:55:12;;;;;;;25.20;10.85;;;;;;;8.66;78.00;102453.19;5033524;28;20021;-68
2021/05/30 04:57:40;;;;;;;20.65;10.80;;;;;;;8.50;78.88;102452.63;5033112;28;20029;-69
2021/05/30 05:00:07;;;;;;;23.02;10.80;;;;;;;8.56;78.18;102453.16;5052460;28;20437;-69
2021/05/30 05:02:33;;;;;;;21.05;11.10;;;;;;;8.61;77.87;102457.03;5053159;28;20346;-69
2021/05/30 05:04:59;;;;;;;28.20;11.73;;;;;;;8.72;77.87;102451.13;5053112;28;20052;-67
2021/05/30 05:07:24;;;;;;;26.98;11.10;;;;;;;8.85;77.31;102452.19;5054241;28;20040;-68
2021/05/30 05:09:50;;;;;;;23.58;12.32;;;;;;;8.86;77.73;102453.97;5054407;28;20021;-68
2021/05/30 05:12:15;;;;;;;23.23;10.35;;;;;;;8.69;77.83;102456.00;5053259;28;20025;-67
2021/05/30 05:14:41;;;;;;;21.30;10.63;;;;;;;8.80;77.60;102443.19;5044895;28;20046;-68
2021/05/30 05:17:06;;;;;;;23.35;9.45;;;;;;;8.84;77.58;102440.09;5034193;28;20025;-67
2021/05/30 05:19:31;;;;;;;21.45;10.90;;;;;;;9.00;77.71;102440.63;5034099;28;20030;-68
2021/05/30 05:21:57;;;;;;;22.23;10.63;;;;;;;9.08;77.33;102440.41;5034586;28;20028;-67
2021/05/30 05:24:22;;;;;;;22.73;10.70;;;;;;;9.15;77.52;102442.72;5036680;28;20021;-67
2021/05/30 05:26:48;;;;;;;23.83;11.27;;;;;;;9.22;77.41;102445.03;5053967;28;20025;-67
2021/05/30 05:29:14;;;;;;;21.13;10.55;;;;;;;9.25;76.78;102437.56;5053819;28;20020;-67
2021/05/30 05:31:39;;;;;;;23.90;10.73;;;;;;;9.46;76.83;102434.97;5053859;28;20115;-68
2021/05/30 05:34:05;;;;;;;17.65;9.75;;;;;;;9.45;76.38;102438.31;5020683;28;20075;-67
2021/05/30 05:36:30;;;;;;;20.35;9.70;;;;;;;9.46;75.90;102434.97;5033905;28;20021;-67
2021/05/30 05:38:56;;;;;;;16.35;9.45;;;;;;;9.54;74.52;102433.94;5033664;28;20048;-68
2021/05/30 05:41:21;;;;;;;15.95;9.43;;;;;;;9.58;74.57;102435.97;5049812;28;20071;-68
2021/05/30 05:43:47;;;;;;;17.23;10.55;;;;;;;9.49;75.00;102435.22;5052324;28;20036;-68
2021/05/30 05:46:12;;;;;;;15.80;9.13;;;;;;;9.55;74.89;102435.72;5053573;28;20025;-68
2021/05/30 05:48:38;;;;;;;15.40;9.07;;;;;;;9.44;75.87;102436.53;5052148;28;20031;-68
2021/05/30 05:51:04;;;;;;;20.55;9.35;;;;;;;9.64;74.71;102435.59;5053525;28;20024;-68
2021/05/30 05:53:29;;;;;;;14.98;9.02;;;;;;;9.79;73.77;102430.78;5052247;28;20044;-68
2021/05/30 05:55:55;;;;;;;14.50;8.52;;;;;;;9.77;75.33;102442.63;5032946;28;20029;-68
2021/05/30 05:58:21;;;;;;;15.82;9.20;;;;;;;9.90;73.59;102444.53;5041085;28;20111;-68
2021/05/30 06:00:46;;;;;;;17.00;10.18;;;;;;;9.78;73.62;102440.19;5042862;28;20020;-68
2021/05/30 06:03:11;;;;;;;16.48;9.25;;;;;;;10.09;73.14;102452.94;5041173;28;20052;-68
2021/05/30 06:05:37;;;;;;;21.73;9.23;;;;;;;10.15;73.38;102449.97;5041514;28;20025;-68
2021/05/30 06:08:03;;;;;;;14.23;8.48;;;;;;;10.34;72.09;102456.59;5042603;28;20079;-68
2021/05/30 06:10:29;;;;;;;15.88;8.75;;;;;;;10.32;71.07;102460.72;5042672;28;20017;-69
2021/05/30 06:12:57;;;;;;;16.10;8.55;;;;;;;10.28;70.56;102458.69;5042672;28;20021;-68
2021/05/30 06:15:24;;;;;;;14.43;9.05;;;;;;;10.43;70.96;102453.84;5040592;28;20752;-68
2021/05/30 06:17:54;;;;;;;17.17;9.63;;;;;;;10.58;70.73;102451.59;5042482;28;20108;-68
2021/05/30 06:20:20;;;;;;;17.73;10.05;;;;;;;10.55;70.13;102453.94;5034752;28;20113;-68
2021/05/30 06:22:46;;;;;;;13.73;8.55;;;;;;;10.58;70.19;102456.75;5034429;28;20037;-68
2021/05/30 06:25:11;;;;;;;17.65;9.57;;;;;;;10.76;70.39;102459.88;5038140;28;20033;-68
2021/05/30 06:27:37;;;;;;;16.30;9.77;;;;;;;10.89;68.67;102461.72;5035984;28;20502;-67
2021/05/30 06:30:04;;;;;;;17.73;9.63;;;;;;;10.92;69.41;102461.94;5048459;28;20085;-69
2021/05/30 06:32:30;;;;;;;17.00;10.20;;;;;;;10.85;68.39;102464.81;5030136;28;20479;-68
2021/05/30 06:34:55;;;;;;;19.90;9.93;;;;;;;10.95;68.81;102467.34;5030213;28;20075;-67
2021/05/30 06:37:20;;;;;;;19.92;9.75;;;;;;;10.91;68.29;102465.28;5031334;28;20029;-68
2021/05/30 06:40:00;;;;;;;16.90;9.38;;;;;;;10.98;68.02;102467.56;5031945;28;20061;-68
2021/05/30 06:42:26;;;;;;;20.67;10.60;;;;;;;11.22;67.01;102462.50;5041597;28;20025;-66
2021/05/30 06:44:53;;;;;;;17.60;9.98;;;;;;;11.28;67.02;102462.97;5055059;28;20029;-68
2021/05/30 06:47:18;;;;;;;19.42;10.63;;;;;;;11.26;66.64;102454.22;5051672;28;20475;-68
2021/05/30 06:49:43;;;;;;;16.00;9.70;;;;;;;11.51;66.26;102456.06;5018929;28;20130;-67
2021/05/30 06:52:09;;;;;;;22.17;10.23;;;;;;;11.87;65.71;102456.06;5057348;28;20107;-67
2021/05/30 06:54:34;;;;;;;18.38;10.10;;;;;;;11.80;65.66;102449.56;5062449;28;20056;-67
2021/05/30 06:57:00;;;;;;;21.35;10.93;;;;;;;11.56;65.91;102452.13;5054306;28;20021;-67
2021/05/30 06:59:25;;;;;;;19.95;10.60;;;;;;;11.64;65.37;102448.44;5072814;28;20052;-68
2021/05/30 07:01:50;;;;;;;27.00;11.60;;;;;;;12.05;64.17;102451.34;5052967;28;20090;-68
2021/05/30 07:04:16;;;;;;;25.17;11.50;;;;;;;12.26;63.75;102458.09;5068031;28;20021;-68
2021/05/30 07:06:42;;;;;;;21.08;10.85;;;;;;;12.46;64.04;102450.84;5065854;28;20028;-68
2021/05/30 07:09:07;;;;;;;29.00;11.52;;;;;;;12.65;63.97;102454.72;5062120;28;20028;-68
2021/05/30 07:11:33;;;;;;;27.02;12.77;;;;;;;12.31;64.15;102454.94;5057356;28;20039;-68
2021/05/30 07:13:59;;;;;;;20.15;11.85;;;;;;;12.55;63.29;102451.50;5061762;28;20037;-67
2021/05/30 07:16:24;;;;;;;20.83;11.80;;;;;;;12.64;63.59;102450.34;5066592;28;20187;-68
2021/05/30 07:18:50;;;;;;;20.30;11.52;;;;;;;12.86;63.17;102443.28;5064162;28;20048;-68
2021/05/30 07:21:15;;;;;;;20.42;11.93;;;;;;;13.15;63.48;102444.34;5052397;28;20027;-68
2021/05/30 07:23:42;;;;;;;22.88;11.82;;;;;;;13.54;61.83;102446.06;5072523;28;20104;-68
2021/05/30 07:26:07;;;;;;;25.67;12.25;;;;;;;13.57;59.84;102456.63;5060948;28;20016;-67
2021/05/30 07:28:33;;;;;;;22.58;12.32;;;;;;;13.13;60.13;102448.53;5066378;28;20025;-67
2021/05/30 07:30:59;;;;;;;22.98;12.00;;;;;;;13.72;61.31;102447.28;5049898;28;20043;-67
2021/05/30 07:33:24;;;;;;;21.10;11.02;;;;;;;14.05;59.06;102461.41;5055385;28;20103;-67
2021/05/30 07:35:50;;;;;;;22.90;11.70;;;;;;;14.07;57.35;102449.44;5045246;28;20026;-67
2021/05/30 07:38:16;;;;;;;20.80;12.35;;;;;;;13.25;60.26;102457.91;5044816;28;20024;-68
2021/05/30 07:40:42;;;;;;;19.88;9.98;;;;;;;13.68;59.69;102455.63;5054485;28;20395;-70
2021/05/30 07:43:08;;;;;;;20.08;10.88;;;;;;;13.98;58.19;102458.41;5057222;28;20033;-68
2021/05/30 07:45:34;;;;;;;19.08;10.82;;;;;;;14.18;59.88;102453.59;5070961;28;20021;-68
2021/05/30 07:47:59;;;;;;;25.33;10.50;;;;;;;14.15;59.59;102453.41;5059203;28;20031;-68
2021/05/30 07:50:26;;;;;;;21.27;11.60;;;;;;;14.21;58.49;102452.91;5065656;28;20087;-68
2021/05/30 07:52:52;;;;;;;20.15;10.70;;;;;;;14.33;59.57;102453.69;5066231;28;20028;-68
2021/05/30 07:55:17;;;;;;;18.60;10.18;;;;;;;14.12;58.07;102458.41;5058661;28;20024;-68
2021/05/30 07:57:45;;;;;;;17.75;9.80;;;;;;;13.81;59.31;102461.59;5070350;28;20484;-68
2021/05/30 08:00:12;;;;;;;15.57;8.93;;;;;;;14.03;60.02;102454.41;5047697;28;20049;-68
2021/05/30 08:02:38;;;;;;;18.38;9.45;;;;;;;14.20;58.48;102462.38;5045125;28;20020;-67
2021/05/30 08:05:05;;;;;;;18.48;9.68;;;;;;;14.43;59.10;102460.34;5044964;28;20072;-67
2021/05/30 08:07:31;;;;;;;16.88;9.02;;;;;;;14.53;58.60;102462.72;5031707;28;20359;-68
2021/05/30 08:09:56;;;;;;;22.17;11.27;;;;;;;14.64;57.11;102454.69;5044611;28;20028;-68
2021/05/30 08:12:22;;;;;;;22.48;10.10;;;;;;;14.50;58.56;102457.34;5044510;28;20100;-67
2021/05/30 08:14:48;;;;;;;18.75;10.65;;;;;;;14.70;59.16;102461.19;5042867;28;20121;-67
2021/05/30 08:17:13;;;;;;;20.83;10.35;;;;;;;15.00;59.39;102457.75;5044981;28;20035;-68
2021/05/30 08:19:42;;;;;;;20.05;10.18;;;;;;;15.26;58.65;102458.41;5043109;28;20041;-68
2021/05/30 08:22:08;;;;;;;18.48;10.02;;;;;;;15.35;56.20;102448.56;5043852;28;20033;-68
2021/05/30 08:24:36;;;;;;;16.77;9.05;;;;;;;15.39;56.51;102455.75;5048124;28;20386;-69
2021/05/30 08:27:02;;;;;;;20.40;10.27;;;;;;;15.60;56.48;102450.91;5022314;28;20426;-68
2021/05/30 08:29:28;;;;;;;18.35;9.55;;;;;;;15.71;55.68;102459.31;5036610;28;20028;-69
2021/05/30 08:31:55;;;;;;;21.13;10.32;;;;;;;15.80;57.33;102458.03;5037358;28;20028;-67
2021/05/30 08:34:21;;;;;;;15.18;9.93;;;;;;;15.89;54.42;102456.00;5043753;28;20421;-69
2021/05/30 08:36:47;;;;;;;14.88;9.55;;;;;;;15.90;54.94;102458.69;5042655;28;20079;-68
2021/05/30 08:39:13;;;;;;;16.25;8.38;;;;;;;15.86;55.21;102463.59;5042054;28;20025;-68
2021/05/30 08:41:39;;;;;;;13.38;8.85;;;;;;;16.08;56.19;102457.03;5044842;28;20390;-68
2021/05/30 08:44:05;;;;;;;14.27;8.50;;;;;;;16.35;54.41;102455.06;5041373;28;20025;-68
2021/05/30 08:46:32;;;;;;;11.27;7.38;;;;;;;16.59;52.19;102459.78;5040825;28;20021;-68
2021/05/30 08:48:58;;;;;;;18.33;8.32;;;;;;;16.27;51.44;102457.22;5050149;28;20028;-70
2021/05/30 08:51:24;;;;;;;13.80;7.53;;;;;;;16.98;53.95;102459.25;5040959;28;20052;-69
2021/05/30 08:53:50;;;;;;;12.75;6.80;;;;;;;16.99;50.23;102458.44;5041341;28;20025;-68
2021/05/30 08:56:17;;;;;;;16.90;7.47;;;;;;;17.13;52.00;102452.22;5041375;28;20029;-68
2021/05/30 08:58:49;;;;;;;13.98;7.13;;;;;;;17.30;51.84;102457.38;5041543;28;20027;-68
2021/05/30 09:01:18;;;;;;;14.65;7.38;;;;;;;17.68;50.31;102466.22;5044260;28;20023;-67
2021/05/30 09:04:06;;;;;;;14.27;7.30;;;;;;;17.82;49.14;102453.84;5041815;28;20437;-68
2021/05/30 09:06:33;;;;;;;15.23;7.47;;;;;;;17.90;47.83;102467.28;5043366;28;20043;-69
2021/05/30 09:08:59;;;;;;;16.23;7.10;;;;;;;18.24;48.25;102456.75;5041909;28;20090;-68
2021/05/30 09:11:37;;;;;;;13.32;6.53;;;;;;;19.02;45.62;102461.94;5040537;28;20555;-68
2021/05/30 09:14:05;;;;;;;11.07;6.47;;;;;;;19.23;44.94;102452.41;5041878;28;20049;-68
2021/05/30 09:16:53;;;;;;;11.27;7.38;;;;;;;19.74;44.54;102456.25;5042461;28;20098;-69
2021/05/30 09:19:40;;;;;;;13.35;6.82;;;;;;;21.37;38.98;102448.22;5041976;28;20421;-70
2021/05/30 09:22:24;;;;;;;12.23;7.50;;;;;;;27.23;28.89;102453.53;5041397;28;20025;-68
2021/05/30 09:24:50;;;;;;;15.10;6.72;;;;;;;27.47;28.45;102451.94;5041923;28;20033;-67
2021/05/30 09:27:17;;;;;;;10.60;6.22;;;;;;;24.10;32.99;102450.53;5043314;28;20096;-68
2021/05/30 09:29:42;;;;;;;10.90;6.13;;;;;;;22.41;36.94;102444.47;5042403;28;20021;-69
2021/05/30 09:32:08;;;;;;;11.88;6.30;;;;;;;23.11;36.44;102442.88;5041051;28;20082;-67
2021/05/30 09:34:35;;;;;;;9.63;5.38;;;;;;;25.09;31.57;102452.50;5040632;28;20029;-67
2021/05/30 09:37:02;;;;;;;10.13;5.63;;;;;;;30.80;23.10;102453.91;5040931;28;20092;-67
2021/05/30 09:39:37;;;;;;;9.93;5.22;;;;;;;33.36;20.03;102444.56;5041963;28;20017;-67
2021/05/30 09:42:36;;;;;;;9.38;6.22;;;;;;;34.32;19.25;102452.50;5040601;28;20117;-69
2021/05/30 09:45:11;;;;;;;9.98;6.15;;;;;;;35.06;18.13;102441.88;5041240;28;20059;-70
2021/05/30 09:47:41;;;;;;;10.85;6.57;;;;;;;34.76;18.23;102449.72;5043863;28;20071;-68
2021/05/30 09:50:09;;;;;;;13.38;6.63;;;;;;;34.43;17.65;102441.53;5041531;28;20032;-69
2021/05/30 09:52:41;;;;;;;13.00;6.70;;;;;;;35.23;18.00;102444.97;5042411;28;20021;-70
2021/05/30 09:55:23;;;;;;;9.07;5.95;;;;;;;35.67;16.89;102443.81;5042157;28;20052;-69
2021/05/30 09:58:18;;;;;;;10.30;5.65;;;;;;;36.22;17.58;102445.78;5047749;28;20031;-69
2021/05/30 10:00:57;;;;;;;12.10;6.57;;;;;;;37.60;16.12;102443.00;5040144;28;20360;-69
2021/05/30 10:03:23;;;;;;;;;;;;;;;36.55;15.68;102441.19;5045312;28;20021;-67
2021/05/30 10:09:12;;;;;;;11.50;5.78;;;;;;;36.59;16.38;102433.03;5032359;28;20044;-67
2021/05/30 10:11:38;;;;;;;9.20;5.45;;;;;;;35.99;16.67;102442.00;5030909;28;20048;-67
2021/05/30 10:14:05;;;;;;;8.95;5.63;;;;;;;36.73;15.62;102429.91;5032869;28;20582;-67
2021/05/30 10:16:31;;;;;;;12.68;5.75;;;;;;;37.64;14.76;102433.91;5018929;28;20479;-67
2021/05/30 10:19:00;;;;;;;9.48;5.40;;;;;;;37.03;15.18;102424.44;5030750;28;20108;-67
2021/05/30 10:21:26;;;;;;;15.50;6.30;;;;;;;37.51;15.64;102423.63;5030941;28;20071;-68
2021/05/30 10:23:52;;;;;;;12.30;6.88;;;;;;;37.89;14.70;102422.22;5030824;28;20030;-67
2021/05/30 10:26:43;;;;;;;11.05;5.68;;;;;;;37.81;15.65;102414.44;5038533;28;20502;-67
2021/05/30 10:29:15;;;;;;;12.63;6.00;;;;;;;38.29;14.79;102415.28;5044584;28;20029;-67
2021/05/30 10:31:45;;;;;;;14.70;6.05;;;;;;;38.11;14.44;102416.88;5032254;28;20057;-66
2021/05/30 10:34:11;;;;;;;11.57;5.70;;;;;;;38.80;14.04;102420.41;5049010;28;20060;-68
2021/05/30 10:36:37;;;;;;;12.93;5.78;;;;;;;38.58;14.31;102410.53;5048180;28;20060;-67
2021/05/30 10:39:03;;;;;;;12.00;5.50;;;;;;;38.74;13.84;102404.53;5046278;28;20025;-68
2021/05/30 10:41:29;;;;;;;13.70;5.47;;;;;;;38.16;14.37;102414.91;5047167;28;20021;-68
2021/05/30 10:43:54;;;;;;;10.45;6.10;;;;;;;37.87;14.67;102418.72;5042972;28;20433;-68
2021/05/30 10:46:23;;;;;;;11.15;5.40;;;;;;;37.96;15.20;102402.25;5046594;28;20144;-68
2021/05/30 10:49:08;;;;;;;10.73;5.33;;;;;;;38.52;14.32;102405.41;5033921;28;20026;-68
2021/05/30 10:51:47;;;;;;;15.20;5.60;;;;;;;39.21;14.75;102409.66;5062567;28;20032;-67
2021/05/30 10:54:13;;;;;;;18.05;5.72;;;;;;;36.85;15.88;102397.28;5038796;28;20029;-67
2021/05/30 10:56:46;;;;;;;11.82;5.13;;;;;;;31.45;21.84;102392.19;5050597;28;20025;-67
2021/05/30 10:59:12;;;;;;;10.23;3.88;;;;;;;28.10;26.70;102393.19;5052328;28;20506;-68
2021/05/30 11:01:40;;;;;;;7.80;3.83;;;;;;;26.96;29.04;102384.56;5050768;28;20032;-68
2021/05/30 11:04:24;;;;;;;8.07;4.00;;;;;;;25.96;31.63;102385.19;5033612;28;20434;-67
2021/05/30 11:06:57;;;;;;;11.48;4.38;;;;;;;25.65;31.27;102384.81;5052041;28;20031;-68
2021/05/30 11:09:24;;;;;;;9.68;4.63;;;;;;;25.28;31.94;102389.50;5035476;28;20029;-67
2021/05/30 11:12:18;;;;;;;11.63;4.28;;;;;;;24.82;33.04;102383.47;5039722;28;20032;-68
2021/05/30 11:15:11;;;;;;;9.13;4.18;;;;;;;24.68;33.55;102386.72;5033297;28;20100;-67
2021/05/30 11:17:38;;;;;;;11.25;4.15;;;;;;;24.33;34.32;102379.03;5049247;28;20107;-67
2021/05/30 11:20:09;;;;;;;9.18;4.35;;;;;;;24.30;33.60;102384.25;5071244;28;20117;-66